Time;durP1;ratioP1;P1;durP2;ratioP2;P2;SDS_P1;SDS_P2;PMS_P1;PMS_P2;Temp;Humidity;BMP_temperature;BMP_pressure;BME280_temperature;BME280_humidity;BME280_pressure;Samples;Min_cycle;Max_cycle;Signal;HPM_P1;HPM_P2
2022/12/18 00:01:33;;;;;;;44.53;20.50;;;;;;;-6.30;100.00;102764.13;5049637;28;20360;-64
2022/12/18 00:04:00;;;;;;;41.78;21.40;;;;;;;-6.34;100.00;102762.50;5049557;28;20025;-64
2022/12/18 00:06:28;;;;;;;41.17;20.65;;;;;;;-6.32;100.00;102765.06;5049727;28;20017;-64
2022/12/18 00:08:55;;;;;;;42.83;23.48;;;;;;;-6.32;100.00;102763.31;5048375;28;20047;-64
2022/12/18 00:11:22;;;;;;;45.75;22.85;;;;;;;-6.33;100.00;102768.56;5049907;28;20122;-64
2022/12/18 00:13:48;;;;;;;42.75;26.40;;;;;;;-6.34;100.00;102777.22;5049911;28;20059;-64
2022/12/18 00:16:16;;;;;;;43.42;23.35;;;;;;;-6.42;100.00;102780.88;5049462;28;20130;-64
2022/12/18 00:18:42;;;;;;;40.30;20.52;;;;;;;-6.48;100.00;102774.97;5049802;28;20637;-64
2022/12/18 00:21:10;;;;;;;45.85;21.65;;;;;;;-6.50;100.00;102780.19;5049804;28;20033;-65
2022/12/18 00:23:36;;;;;;;47.65;22.13;;;;;;;-6.58;100.00;102763.13;5049568;28;20039;-65
2022/12/18 00:26:04;;;;;;;42.00;22.85;;;;;;;-6.61;100.00;102757.13;5049766;28;20138;-64
2022/12/18 00:28:29;;;;;;;44.88;21.65;;;;;;;-6.57;100.00;102750.13;5049485;28;20468;-64
2022/12/18 00:31:06;;;;;;;44.40;21.35;;;;;;;-6.58;100.00;102752.75;5049599;28;20036;-64
2022/12/18 00:33:31;;;;;;;42.40;22.17;;;;;;;-6.63;100.00;102751.13;5049659;28;20523;-64
2022/12/18 00:36:05;;;;;;;45.08;23.42;;;;;;;-6.69;100.00;102753.00;5067714;28;20135;-64
2022/12/18 00:38:31;;;;;;;44.28;21.67;;;;;;;-6.71;100.00;102759.97;5069310;28;20475;-64
2022/12/18 00:40:57;;;;;;;41.38;20.70;;;;;;;-6.70;100.00;102757.34;5068896;28;20029;-64
2022/12/18 00:43:22;;;;;;;38.40;19.80;;;;;;;-6.73;100.00;102749.66;5060987;28;20035;-64
2022/12/18 00:45:48;;;;;;;47.92;22.15;;;;;;;-6.75;100.00;102748.00;5068639;28;20055;-64
2022/12/18 00:48:13;;;;;;;37.58;20.38;;;;;;;-6.76;100.00;102754.91;5068511;28;20093;-64
2022/12/18 00:50:38;;;;;;;39.17;20.23;;;;;;;-6.80;100.00;102761.06;5065697;28;20794;-64
2022/12/18 00:53:04;;;;;;;40.47;19.90;;;;;;;-6.89;100.00;102753.50;5049238;28;20391;-64
2022/12/18 00:55:29;;;;;;;41.08;19.80;;;;;;;-6.87;100.00;102747.38;5065512;28;20032;-64
2022/12/18 00:57:55;;;;;;;39.08;21.35;;;;;;;-6.86;100.00;102750.84;5068296;28;20394;-66
2022/12/18 01:00:20;;;;;;;41.35;21.95;;;;;;;-6.90;100.00;102750.06;5050209;28;20037;-64
2022/12/18 01:02:46;;;;;;;43.67;20.42;;;;;;;-6.92;100.00;102743.19;5068409;28;20035;-64
2022/12/18 01:05:12;;;;;;;41.83;22.55;;;;;;;-6.91;100.00;102752.69;5068292;28;20025;-64
2022/12/18 01:07:38;;;;;;;44.35;23.13;;;;;;;-7.05;100.00;102734.84;5064991;28;20108;-64
2022/12/18 01:10:05;;;;;;;41.92;24.35;;;;;;;-7.00;100.00;102739.94;5048603;28;20033;-64
2022/12/18 01:12:30;;;;;;;47.30;24.13;;;;;;;-6.95;100.00;102753.66;5049421;28;20104;-64
2022/12/18 01:14:56;;;;;;;47.33;21.20;;;;;;;-6.99;100.00;102768.44;5048925;28;20603;-65
2022/12/18 01:17:21;;;;;;;44.35;21.83;;;;;;;-7.06;100.00;102778.09;5049503;28;20033;-64
2022/12/18 01:19:46;;;;;;;41.67;21.88;;;;;;;-7.03;100.00;102777.16;5049498;28;20060;-64
2022/12/18 01:22:12;;;;;;;54.67;25.40;;;;;;;-7.11;100.00;102779.09;5049437;28;20029;-64
2022/12/18 01:24:37;;;;;;;46.08;23.60;;;;;;;-7.06;100.00;102791.06;5049372;28;20630;-66
2022/12/18 01:27:03;;;;;;;35.58;20.48;;;;;;;-7.12;100.00;102777.41;5049441;28;20037;-66
2022/12/18 01:29:28;;;;;;;39.33;19.98;;;;;;;-7.11;100.00;102769.56;5049200;28;20040;-66
2022/12/18 01:31:55;;;;;;;46.13;21.83;;;;;;;-7.12;100.00;102769.63;5049211;28;20029;-66
2022/12/18 01:34:21;;;;;;;39.58;20.00;;;;;;;-7.11;100.00;102779.09;5049289;28;20514;-66
2022/12/18 01:36:46;;;;;;;37.42;21.10;;;;;;;-7.16;100.00;102779.19;5048706;28;20040;-66
2022/12/18 01:39:13;;;;;;;49.30;21.33;;;;;;;-7.14;100.00;102771.38;5032417;28;20133;-67
2022/12/18 01:44:52;;;;;;;42.35;18.58;;;;;;;-7.17;100.00;102759.34;5053547;28;20506;-66
2022/12/18 01:47:23;;;;;;;40.58;19.60;;;;;;;-7.17;100.00;102759.34;5052183;28;20070;-66
2022/12/18 01:49:49;;;;;;;37.65;19.60;;;;;;;-7.19;100.00;102750.75;5052149;28;20033;-66
2022/12/18 01:52:15;;;;;;;46.42;22.73;;;;;;;-7.19;100.00;102755.94;5034116;28;20033;-66
2022/12/18 01:54:41;;;;;;;39.40;19.40;;;;;;;-7.21;100.00;102756.84;5052512;28;20037;-66
2022/12/18 01:57:06;;;;;;;38.13;20.10;;;;;;;-7.25;100.00;102750.91;5052892;28;20040;-66
2022/12/18 01:59:33;;;;;;;43.08;21.27;;;;;;;-7.24;100.00;102754.34;5052553;28;20032;-66
2022/12/18 02:02:00;;;;;;;43.15;23.33;;;;;;;-7.26;100.00;102751.75;5053033;28;20037;-66
2022/12/18 02:04:27;;;;;;;38.30;19.85;;;;;;;-7.32;100.00;102752.75;5052630;28;20121;-66
2022/12/18 02:07:12;;;;;;;41.20;20.48;;;;;;;-7.32;100.00;102752.75;5052684;28;20388;-67
2022/12/18 02:09:48;;;;;;;43.33;20.23;;;;;;;-7.34;100.00;102745.91;5052331;28;20081;-66
2022/12/18 02:12:19;;;;;;;43.75;21.27;;;;;;;-7.34;100.00;102751.94;5052323;28;20021;-66
2022/12/18 02:14:55;;;;;;;36.80;17.60;;;;;;;-7.37;100.00;102744.22;5052728;28;20056;-64
2022/12/18 02:17:23;;;;;;;39.42;18.85;;;;;;;-7.37;100.00;102745.97;5052501;28;20037;-69
2022/12/18 02:20:07;;;;;;;45.60;20.77;;;;;;;-7.40;100.00;102746.06;5052643;28;20029;-72
2022/12/18 02:22:35;;;;;;;39.60;20.65;;;;;;;-7.43;100.00;102751.31;5052513;28;20017;-72
2022/12/18 02:25:37;;;;;;;41.65;20.50;;;;;;;-7.47;100.00;102753.09;5052527;28;20033;-72
2022/12/18 02:28:06;;;;;;;39.60;18.85;;;;;;;-7.55;100.00;102742.88;5052551;28;20382;-72
2022/12/18 02:30:34;;;;;;;38.05;19.35;;;;;;;-7.52;100.00;102762.69;5052115;28;20033;-72
2022/12/18 02:33:03;;;;;;;37.50;19.30;;;;;;;-7.55;100.00;102758.44;5052430;28;20024;-72
2022/12/18 02:35:30;;;;;;;40.45;19.80;;;;;;;-7.62;100.00;102754.28;5051937;28;20056;-72
2022/12/18 02:37:57;;;;;;;39.45;17.90;;;;;;;-7.61;100.00;102761.16;5052296;28;20444;-72
2022/12/18 02:40:26;;;;;;;38.25;21.90;;;;;;;-7.62;100.00;102759.47;5052223;28;20031;-72
2022/12/18 02:42:51;;;;;;;35.65;18.40;;;;;;;-7.61;100.00;102755.13;5052248;28;20021;-69
2022/12/18 02:45:17;;;;;;;37.05;19.23;;;;;;;-7.62;100.00;102748.22;5052128;28;21069;-70
2022/12/18 02:47:47;;;;;;;33.28;18.13;;;;;;;-7.62;100.00;102743.06;5052091;28;20063;-70
2022/12/18 02:50:37;;;;;;;45.60;19.15;;;;;;;-7.60;100.00;102741.28;5051051;28;20032;-72
2022/12/18 02:53:31;;;;;;;41.88;21.15;;;;;;;-7.62;100.00;102724.91;5051939;28;20037;-72
2022/12/18 02:55:56;;;;;;;35.47;18.73;;;;;;;-7.63;100.00;102728.41;5051009;28;20044;-72
2022/12/18 02:58:41;;;;;;;32.70;16.27;;;;;;;-7.63;100.00;102718.88;5050955;28;20364;-72
2022/12/18 03:01:14;;;;;;;34.60;17.08;;;;;;;-7.62;100.00;102714.56;5050883;28;20064;-72
2022/12/18 03:03:48;;;;;;;37.25;18.80;;;;;;;-7.64;100.00;102717.19;5050941;28;20025;-72
2022/12/18 03:06:26;;;;;;;35.58;17.95;;;;;;;-7.64;100.00;102714.59;5050855;28;20025;-72
2022/12/18 03:08:57;;;;;;;35.72;16.98;;;;;;;-7.63;100.00;102728.41;5050811;28;20025;-72
2022/12/18 03:12:22;;;;;;;35.97;17.95;;;;;;;-7.61;100.00;102730.09;5050700;28;20032;-72
2022/12/18 03:14:11;;;;;;;35.45;15.75;;;;;;;-7.61;100.00;102726.63;5050521;28;20045;-72
2022/12/18 03:16:37;;;;;;;31.70;15.98;;;;;;;-7.65;100.00;102715.50;5050736;28;20430;-72
2022/12/18 03:19:11;;;;;;;31.42;16.63;;;;;;;-7.64;100.00;102713.75;5051445;28;20024;-72
2022/12/18 03:21:40;;;;;;;28.90;16.52;;;;;;;-7.61;100.00;102709.34;5051443;28;20486;-72
2022/12/18 03:24:08;;;;;;;31.55;15.45;;;;;;;-7.55;100.00;102713.53;5051613;28;20120;-72
2022/12/18 03:26:35;;;;;;;34.60;16.45;;;;;;;-7.59;100.00;102715.38;5051487;28;20045;-72
2022/12/18 03:29:07;;;;;;;32.42;16.80;;;;;;;-7.58;100.00;102711.03;5051169;28;20480;-72
2022/12/18 03:31:32;;;;;;;37.55;16.85;;;;;;;-7.54;100.00;102710.09;5051235;28;20082;-72
2022/12/18 03:34:04;;;;;;;33.83;17.45;;;;;;;-7.55;100.00;102714.38;5051071;28;20025;-70
2022/12/18 03:36:30;;;;;;;29.42;15.88;;;;;;;-7.52;100.00;102705.69;5051123;28;20064;-70
2022/12/18 03:38:55;;;;;;;31.92;16.02;;;;;;;-7.51;100.00;102708.25;5032523;28;20036;-72
2022/12/18 03:41:51;;;;;;;28.23;14.82;;;;;;;-7.52;100.00;102706.56;5050796;28;20035;-72
2022/12/18 03:44:31;;;;;;;30.25;15.27;;;;;;;-7.54;100.00;102699.72;5050632;28;20033;-72
2022/12/18 03:47:19;;;;;;;30.23;15.55;;;;;;;-7.51;100.00;102703.09;5050574;28;20029;-72
2022/12/18 03:49:53;;;;;;;33.83;15.45;;;;;;;-7.52;100.00;102703.09;5049979;28;20028;-72
2022/12/18 03:52:29;;;;;;;27.42;15.98;;;;;;;-7.51;100.00;102700.50;5050144;28;20043;-72
2022/12/18 03:54:57;;;;;;;31.52;16.80;;;;;;;-7.53;100.00;102689.31;5050421;28;20039;-72
2022/12/18 03:57:26;;;;;;;28.60;14.75;;;;;;;-7.54;100.00;102689.34;5050002;28;20032;-72
2022/12/18 03:59:56;;;;;;;33.65;17.17;;;;;;;-7.59;100.00;102689.47;5050186;28;20028;-72
2022/12/18 04:02:24;;;;;;;34.83;16.00;;;;;;;-7.58;100.00;102687.72;5049729;28;20032;-72
2022/12/18 04:04:57;;;;;;;26.85;14.40;;;;;;;-7.62;100.00;102671.41;5050428;28;20430;-72
2022/12/18 04:07:23;;;;;;;30.98;17.10;;;;;;;-7.67;100.00;102655.09;5050541;28;20025;-72
2022/12/18 04:09:50;;;;;;;26.75;12.82;;;;;;;-7.55;100.00;102669.50;5050246;28;20529;-72
2022/12/18 04:12:15;;;;;;;31.70;16.10;;;;;;;-7.56;100.00;102666.06;5049790;28;20159;-72
2022/12/18 04:14:40;;;;;;;31.02;14.60;;;;;;;-7.54;100.00;102660.84;5049309;28;20036;-72
2022/12/18 04:17:06;;;;;;;31.70;17.23;;;;;;;-7.55;100.00;102659.13;5049253;28;20040;-72
2022/12/18 04:19:31;;;;;;;30.08;16.85;;;;;;;-7.58;100.00;102660.06;5049495;28;20025;-72
2022/12/18 04:21:56;;;;;;;31.95;16.63;;;;;;;-7.59;100.00;102650.59;5050315;28;20029;-72
2022/12/18 04:24:22;;;;;;;26.92;13.63;;;;;;;-7.62;100.00;102642.03;5050374;28;20025;-72
2022/12/18 04:26:47;;;;;;;25.15;14.02;;;;;;;-7.57;100.00;102653.13;5050142;28;20484;-72
2022/12/18 04:29:12;;;;;;;26.67;13.27;;;;;;;-7.58;100.00;102652.28;5050104;28;20064;-73
2022/12/18 04:31:38;;;;;;;30.40;15.18;;;;;;;-7.59;100.00;102647.16;5050186;28;20032;-72
2022/12/18 04:34:03;;;;;;;28.55;14.60;;;;;;;-7.59;100.00;102649.75;5049924;28;20057;-72
2022/12/18 04:36:29;;;;;;;29.50;13.75;;;;;;;-7.59;100.00;102645.41;5050083;28;20025;-72
2022/12/18 04:38:54;;;;;;;26.55;13.85;;;;;;;-7.59;100.00;102648.00;5050041;28;20025;-72
2022/12/18 04:41:20;;;;;;;27.73;13.02;;;;;;;-7.58;100.00;102657.47;5049165;28;20020;-72
2022/12/18 04:43:45;;;;;;;25.80;13.48;;;;;;;-7.57;100.00;102663.50;5049982;28;20112;-72
2022/12/18 04:46:11;;;;;;;24.75;13.65;;;;;;;-7.62;100.00;102654.97;5049995;28;20021;-72
2022/12/18 04:48:36;;;;;;;28.63;14.77;;;;;;;-7.59;100.00;102670.47;5049901;28;20041;-72
2022/12/18 04:51:03;;;;;;;24.63;11.38;;;;;;;-7.57;100.00;102668.69;5048831;28;20060;-72
2022/12/18 04:53:28;;;;;;;32.20;13.25;;;;;;;-7.63;100.00;102669.66;5048668;28;20540;-72
2022/12/18 04:56:07;;;;;;;26.67;11.80;;;;;;;-7.62;100.00;102679.16;5048863;28;20032;-72
2022/12/18 04:58:33;;;;;;;27.77;12.75;;;;;;;-7.63;100.00;102674.00;5049677;28;20028;-72
2022/12/18 05:00:58;;;;;;;25.85;12.32;;;;;;;-7.66;100.00;102676.66;5048971;28;20388;-72
2022/12/18 05:03:23;;;;;;;25.95;12.35;;;;;;;-7.67;100.00;102682.75;5048978;28;20029;-72
2022/12/18 05:05:51;;;;;;;31.02;14.38;;;;;;;-7.69;100.00;102692.28;5049475;28;20060;-72
2022/12/18 05:08:16;;;;;;;28.05;13.40;;;;;;;-7.73;100.00;102692.34;5048415;28;20061;-72
2022/12/18 05:10:41;;;;;;;26.02;13.93;;;;;;;-7.72;100.00;102707.00;5048380;28;20526;-72
2022/12/18 05:13:07;;;;;;;26.42;12.82;;;;;;;-7.72;100.00;102714.78;5048292;28;20375;-72
2022/12/18 05:15:33;;;;;;;23.48;11.20;;;;;;;-7.68;100.00;102714.69;5048162;28;20025;-72
2022/12/18 05:17:59;;;;;;;24.48;12.75;;;;;;;-7.64;100.00;102709.44;5048769;28;20369;-72
2022/12/18 05:20:25;;;;;;;24.77;13.18;;;;;;;-7.61;100.00;102709.34;5049105;28;20032;-72
2022/12/18 05:22:51;;;;;;;26.38;13.93;;;;;;;-7.65;100.00;102699.09;5049356;28;20048;-72
2022/12/18 05:25:17;;;;;;;26.65;13.75;;;;;;;-7.63;100.00;102713.72;5049165;28;20025;-72
2022/12/18 05:27:42;;;;;;;28.33;12.57;;;;;;;-7.66;100.00;102708.59;5031442;28;20025;-72
2022/12/18 05:30:09;;;;;;;26.25;13.38;;;;;;;-7.69;100.00;102707.81;5049419;28;20124;-72
2022/12/18 05:32:34;;;;;;;29.65;12.73;;;;;;;-7.75;100.00;102698.44;5049447;28;20029;-72
2022/12/18 05:35:00;;;;;;;24.70;12.10;;;;;;;-7.80;100.00;102687.34;5049175;28;20415;-71
2022/12/18 05:37:25;;;;;;;24.50;13.70;;;;;;;-7.76;100.00;102688.97;5049276;28;20044;-72
2022/12/18 05:39:50;;;;;;;25.83;13.05;;;;;;;-7.75;100.00;102683.75;5049356;28;20051;-72
2022/12/18 05:42:16;;;;;;;29.65;13.63;;;;;;;-7.73;100.00;102687.19;5048990;28;20027;-72
2022/12/18 05:44:42;;;;;;;24.73;12.30;;;;;;;-7.73;100.00;102684.59;5031157;28;20463;-72
2022/12/18 05:47:08;;;;;;;27.92;13.35;;;;;;;-7.78;100.00;102673.47;5049250;28;20037;-72
2022/12/18 05:49:33;;;;;;;22.60;11.98;;;;;;;-7.67;100.00;102683.59;5031070;28;20056;-72
2022/12/18 05:51:59;;;;;;;27.02;13.48;;;;;;;-7.63;100.00;102681.78;5048763;28;20037;-72
2022/12/18 05:54:27;;;;;;;27.55;13.32;;;;;;;-7.64;100.00;102669.72;5030404;28;20035;-72
2022/12/18 05:56:52;;;;;;;29.48;12.75;;;;;;;-7.56;100.00;102675.56;5048729;28;20090;-72
2022/12/18 05:59:18;;;;;;;32.70;13.20;;;;;;;-7.53;100.00;102672.91;5048314;28;20052;-72
2022/12/18 06:01:43;;;;;;;34.05;13.32;;;;;;;-7.54;100.00;102660.84;5048173;28;20032;-72
2022/12/18 06:04:08;;;;;;;27.00;13.98;;;;;;;-7.65;100.00;102637.78;5048012;28;20043;-72
2022/12/18 06:06:33;;;;;;;23.23;13.43;;;;;;;-7.50;100.00;102662.47;5047908;28;20542;-72
2022/12/18 06:09:01;;;;;;;26.40;11.85;;;;;;;-7.53;100.00;102649.59;5030128;28;20495;-72
2022/12/18 06:11:26;;;;;;;28.02;12.32;;;;;;;-7.49;100.00;102661.59;5048213;28;20455;-72
2022/12/18 06:13:56;;;;;;;28.08;13.15;;;;;;;-7.50;100.00;102654.69;5048346;28;20054;-72
2022/12/18 06:16:21;;;;;;;26.55;12.48;;;;;;;-7.55;100.00;102644.44;5048865;28;20048;-72
2022/12/18 06:18:47;;;;;;;27.05;13.45;;;;;;;-7.50;100.00;102649.53;5049003;28;20068;-72
2022/12/18 06:21:12;;;;;;;29.23;14.38;;;;;;;-7.52;100.00;102644.38;5048924;28;20518;-72
2022/12/18 06:23:38;;;;;;;25.38;12.77;;;;;;;-7.52;100.00;102641.81;5048767;28;20124;-72
2022/12/18 06:26:05;;;;;;;25.63;11.55;;;;;;;-7.52;100.00;102646.09;5051354;28;20032;-72
2022/12/18 06:28:31;;;;;;;25.30;13.60;;;;;;;-7.51;100.00;102647.84;5052327;28;20043;-72
2022/12/18 06:30:56;;;;;;;29.15;12.75;;;;;;;-7.52;100.00;102653.88;5052411;28;20482;-72
2022/12/18 06:33:21;;;;;;;26.90;12.73;;;;;;;-7.53;100.00;102663.41;5052380;28;20033;-72
2022/12/18 06:35:47;;;;;;;27.95;13.77;;;;;;;-7.56;100.00;102665.22;5052193;28;20068;-70
2022/12/18 06:38:12;;;;;;;27.70;13.27;;;;;;;-7.74;100.00;102632.81;5052279;28;20631;-71
2022/12/18 06:40:39;;;;;;;22.80;10.98;;;;;;;-7.63;100.00;102648.09;5052169;28;20531;-70
2022/12/18 06:43:05;;;;;;;25.42;12.32;;;;;;;-7.65;100.00;102647.28;5052318;28;20434;-71
2022/12/18 06:45:30;;;;;;;26.83;13.70;;;;;;;-7.74;100.00;102644.00;5052236;28;20029;-70
2022/12/18 06:47:55;;;;;;;28.55;12.75;;;;;;;-7.68;100.00;102649.94;5052189;28;20072;-71
2022/12/18 06:50:20;;;;;;;25.38;11.77;;;;;;;-7.70;100.00;102642.22;5051920;28;20110;-71
2022/12/18 06:52:46;;;;;;;25.23;12.13;;;;;;;-7.74;100.00;102643.16;5052026;28;20036;-70
2022/12/18 06:55:11;;;;;;;25.20;12.38;;;;;;;-7.80;100.00;102636.38;5051921;28;20021;-70
2022/12/18 06:57:37;;;;;;;22.50;10.80;;;;;;;-7.77;100.00;102638.91;5051846;28;20104;-70
2022/12/18 07:00:05;;;;;;;25.20;12.98;;;;;;;-7.77;100.00;102643.25;5051881;28;20044;-70
2022/12/18 07:02:31;;;;;;;28.15;13.50;;;;;;;-7.80;100.00;102641.56;5051696;28;20449;-70
2022/12/18 07:04:56;;;;;;;26.60;13.07;;;;;;;-7.80;100.00;102636.38;5051812;28;20057;-70
2022/12/18 07:07:21;;;;;;;30.00;14.27;;;;;;;-7.84;100.00;102626.97;5051755;28;20052;-70
2022/12/18 07:09:47;;;;;;;22.20;12.15;;;;;;;-7.77;100.00;102638.06;5051536;28;20483;-70
2022/12/18 07:12:12;;;;;;;30.35;13.05;;;;;;;-7.76;100.00;102624.22;5051520;28;20040;-70
2022/12/18 07:14:38;;;;;;;25.63;13.68;;;;;;;-7.73;100.00;102624.13;5051112;28;20033;-70
2022/12/18 07:17:03;;;;;;;27.35;13.23;;;;;;;-7.67;100.00;102625.75;5050868;28;20063;-71
2022/12/18 07:19:29;;;;;;;24.40;13.85;;;;;;;-7.64;100.00;102623.09;5050934;28;20170;-70
2022/12/18 07:21:54;;;;;;;27.45;13.50;;;;;;;-7.67;100.00;102605.88;5051506;28;20044;-70
2022/12/18 07:24:20;;;;;;;29.17;14.20;;;;;;;-7.62;100.00;102609.22;5050962;28;20037;-70
2022/12/18 07:26:46;;;;;;;28.83;13.85;;;;;;;-7.58;100.00;102602.22;5051533;28;20056;-70
2022/12/18 07:29:11;;;;;;;25.85;13.25;;;;;;;-7.51;100.00;102609.81;5051325;28;20118;-71
2022/12/18 07:31:37;;;;;;;27.55;14.68;;;;;;;-7.48;100.00;102603.69;5051321;28;20064;-70
2022/12/18 07:34:02;;;;;;;26.98;14.57;;;;;;;-7.50;100.00;102595.94;5050986;28;20068;-70
2022/12/18 07:36:27;;;;;;;27.58;15.50;;;;;;;-7.48;100.00;102601.13;5032336;28;20476;-70
2022/12/18 07:38:53;;;;;;;23.58;12.88;;;;;;;-7.45;100.00;102592.41;5051255;28;20132;-70
2022/12/18 07:41:18;;;;;;;24.42;12.70;;;;;;;-7.50;100.00;102588.19;5050799;28;20040;-70
2022/12/18 07:43:44;;;;;;;26.35;13.93;;;;;;;-7.45;100.00;102587.22;5050363;28;20028;-71
2022/12/18 07:46:11;;;;;;;26.40;12.30;;;;;;;-7.42;100.00;102588.00;5050629;28;20112;-70
2022/12/18 07:48:36;;;;;;;29.38;15.13;;;;;;;-7.42;100.00;102584.56;5049943;28;20451;-71
2022/12/18 07:51:04;;;;;;;33.58;14.77;;;;;;;-7.40;100.00;102568.09;5050595;28;20119;-70
2022/12/18 07:53:32;;;;;;;30.90;11.80;;;;;;;-7.37;100.00;102567.16;5050531;28;20142;-70
2022/12/18 07:55:59;;;;;;;26.63;13.52;;;;;;;-7.41;100.00;102556.03;5049741;28;20690;-70
2022/12/18 07:58:24;;;;;;;27.05;13.73;;;;;;;-7.32;100.00;102548.00;5049551;28;20032;-70
2022/12/18 08:00:50;;;;;;;26.73;13.32;;;;;;;-7.25;100.00;102540.94;5031576;28;20032;-70
2022/12/18 08:03:16;;;;;;;27.48;13.32;;;;;;;-7.21;100.00;102534.75;5049629;28;20108;-70
2022/12/18 08:05:41;;;;;;;24.45;12.82;;;;;;;-7.07;100.00;102544.78;5049775;28;20116;-70
2022/12/18 08:08:07;;;;;;;29.17;14.77;;;;;;;-7.00;100.00;102542.88;5049563;28;20071;-70
2022/12/18 08:10:32;;;;;;;26.23;12.65;;;;;;;-6.92;100.00;102546.94;5049496;28;20120;-70
2022/12/18 08:12:57;;;;;;;27.08;13.57;;;;;;;-6.82;100.00;102542.34;5049605;28;20041;-71
2022/12/18 08:15:23;;;;;;;28.48;14.23;;;;;;;-6.73;100.00;102542.13;5049415;28;20040;-70
2022/12/18 08:17:48;;;;;;;31.55;12.80;;;;;;;-6.65;100.00;102540.16;5049122;28;20093;-70
2022/12/18 08:20:18;;;;;;;27.92;13.23;;;;;;;-6.57;100.00;102558.09;5031071;28;20021;-70
2022/12/18 08:22:43;;;;;;;31.40;16.35;;;;;;;-6.57;100.00;102541.69;5048920;28;20395;-70
2022/12/18 08:25:09;;;;;;;25.92;14.98;;;;;;;-6.40;100.00;102557.59;5048882;28;20025;-70
2022/12/18 08:27:34;;;;;;;28.38;13.50;;;;;;;-6.30;100.00;102566.81;5049533;28;20392;-70
2022/12/18 08:30:00;;;;;;;30.02;15.82;;;;;;;-6.20;100.00;102570.84;5049783;28;20037;-71
2022/12/18 08:32:27;;;;;;;26.42;12.13;;;;;;;-6.12;100.00;102564.56;5049996;28;20506;-71
2022/12/18 08:34:52;;;;;;;26.85;12.70;;;;;;;-6.03;100.00;102561.69;5049795;28;20056;-70
2022/12/18 08:37:18;;;;;;;28.60;15.00;;;;;;;-5.97;100.00;102564.09;5049944;28;20041;-71
2022/12/18 08:39:43;;;;;;;48.70;14.98;;;;;;;-6.03;100.00;102533.09;5049996;28;20025;-71
2022/12/18 08:45:04;;;;;;;26.42;12.52;;;;;;;-5.78;100.00;102561.75;5011104;28;20400;-71
2022/12/18 08:47:29;;;;;;;29.52;13.98;;;;;;;-5.79;100.00;102555.69;5048430;28;20035;-71
2022/12/18 08:49:55;;;;;;;28.45;13.93;;;;;;;-5.70;100.00;102554.53;5048632;28;20025;-71
2022/12/18 08:52:20;;;;;;;27.40;14.32;;;;;;;-5.64;100.00;102543.09;5049727;28;20047;-71
2022/12/18 08:54:45;;;;;;;27.23;13.52;;;;;;;-5.61;100.00;102530.84;5049792;28;20036;-71
2022/12/18 08:57:11;;;;;;;25.15;13.70;;;;;;;-5.54;100.00;102534.09;5048981;28;20086;-68
2022/12/18 08:59:36;;;;;;;27.95;13.63;;;;;;;-5.49;100.00;102532.19;5049040;28;20519;-70
2022/12/18 09:02:01;;;;;;;25.83;13.13;;;;;;;-5.36;100.00;102528.28;5049057;28;20040;-70
2022/12/18 09:04:27;;;;;;;28.52;14.35;;;;;;;-5.26;100.00;102533.19;5049310;28;20056;-70
2022/12/18 09:06:52;;;;;;;28.13;14.32;;;;;;;-5.20;100.00;102527.75;5048869;28;20040;-70
2022/12/18 09:09:17;;;;;;;27.35;14.80;;;;;;;-5.12;100.00;102525.75;5049387;28;20029;-70
2022/12/18 09:11:43;;;;;;;29.88;13.60;;;;;;;-5.06;100.00;102533.31;5049172;28;20025;-70
2022/12/18 09:14:09;;;;;;;29.95;14.20;;;;;;;-4.98;100.00;102540.84;5049313;28;20040;-70
2022/12/18 09:16:35;;;;;;;27.50;14.60;;;;;;;-4.92;100.00;102544.09;5049406;28;20032;-70
2022/12/18 09:19:04;;;;;;;23.75;13.38;;;;;;;-4.89;100.00;102530.97;5049296;28;20467;-70
2022/12/18 09:21:32;;;;;;;25.83;15.52;;;;;;;-4.80;100.00;102545.41;5049008;28;20171;-70
2022/12/18 09:23:57;;;;;;;27.40;13.70;;;;;;;-4.75;100.00;102540.03;5048682;28;20033;-69
2022/12/18 09:26:24;;;;;;;29.23;14.70;;;;;;;-4.71;100.00;102546.84;5049119;28;20059;-70
2022/12/18 09:28:50;;;;;;;27.75;14.65;;;;;;;-4.66;100.00;102553.56;5048966;28;20163;-71
2022/12/18 09:31:17;;;;;;;29.05;15.13;;;;;;;-4.62;100.00;102562.09;5049918;28;20479;-71
2022/12/18 09:33:42;;;;;;;29.52;13.98;;;;;;;-4.60;100.00;102557.69;5049603;28;20024;-71
2022/12/18 09:36:10;;;;;;;25.48;12.95;;;;;;;-4.55;100.00;102554.94;5049113;28;20061;-69
2022/12/18 09:38:36;;;;;;;27.23;14.30;;;;;;;-4.49;100.00;102552.94;5049464;28;20025;-72
2022/12/18 09:41:24;;;;;;;28.77;14.27;;;;;;;-4.39;100.00;102545.63;5049409;28;20025;-71
2022/12/18 09:43:53;;;;;;;30.17;15.65;;;;;;;-4.38;100.00;102534.28;5037271;28;20076;-72
2022/12/18 09:46:25;;;;;;;29.38;15.30;;;;;;;-4.34;100.00;102520.25;5049935;28;20025;-72
2022/12/18 09:48:56;;;;;;;27.13;14.73;;;;;;;-4.23;100.00;102520.69;5048870;28;20033;-72
2022/12/18 09:51:30;;;;;;;25.27;12.82;;;;;;;-4.16;100.00;102518.72;5049636;28;20033;-72
2022/12/18 09:54:20;;;;;;;26.13;14.13;;;;;;;-4.11;100.00;102518.50;5049655;28;20467;-72
2022/12/18 09:56:45;;;;;;;26.13;15.55;;;;;;;-4.09;100.00;102501.91;5049898;28;20118;-73
2022/12/18 09:59:35;;;;;;;31.73;17.05;;;;;;;-4.00;100.00;102496.34;5030856;28;20495;-72
2022/12/18 10:02:16;;;;;;;34.10;14.88;;;;;;;-3.89;100.00;102502.88;5052866;28;20028;-73
2022/12/18 10:04:42;;;;;;;25.37;13.07;;;;;;;-3.81;100.00;102498.19;5052496;28;20033;-72
2022/12/18 10:07:19;;;;;;;28.02;14.48;;;;;;;-3.76;100.00;102499.69;5052892;28;20036;-72
2022/12/18 10:09:57;;;;;;;30.15;15.73;;;;;;;-3.66;100.00;102502.78;5052405;28;20068;-72
2022/12/18 10:13:11;;;;;;;28.38;15.95;;;;;;;-3.57;100.00;102504.16;5052813;28;20383;-72
2022/12/18 10:15:49;;;;;;;28.40;15.73;;;;;;;-3.50;100.00;102508.22;5049554;28;20033;-72
2022/12/18 10:18:31;;;;;;;27.60;13.20;;;;;;;-3.44;100.00;102502.72;5052382;28;20035;-72
2022/12/18 10:21:06;;;;;;;25.48;13.32;;;;;;;-3.36;100.00;102508.47;5052916;28;20049;-72
2022/12/18 10:23:56;;;;;;;26.13;14.18;;;;;;;-3.33;100.00;102505.75;5052140;28;20407;-72
2022/12/18 10:26:22;;;;;;;27.65;14.32;;;;;;;-3.29;100.00;102500.38;5052419;28;20430;-72
2022/12/18 10:28:48;;;;;;;26.55;13.48;;;;;;;-3.35;100.00;102472.81;5052465;28;20056;-72
2022/12/18 10:31:31;;;;;;;32.60;15.60;;;;;;;-3.24;100.00;102485.38;5052900;28;20040;-73
2022/12/18 10:33:56;;;;;;;30.90;16.13;;;;;;;-3.19;100.00;102494.69;5046383;28;20079;-74
2022/12/18 10:36:24;;;;;;;28.15;15.45;;;;;;;-3.13;100.00;102494.44;5028686;28;20057;-74
2022/12/18 10:38:49;;;;;;;27.55;14.45;;;;;;;-3.10;100.00;102475.19;5046487;28;20029;-74
2022/12/18 10:41:18;;;;;;;29.02;15.52;;;;;;;-3.03;100.00;102467.94;5046383;28;20036;-72
2022/12/18 10:43:44;;;;;;;26.15;13.95;;;;;;;-3.00;100.00;102468.63;5046553;28;20119;-75
2022/12/18 10:46:09;;;;;;;26.02;13.43;;;;;;;-2.96;100.00;102464.13;5046864;28;20124;-74
2022/12/18 10:48:49;;;;;;;24.20;13.15;;;;;;;-2.90;100.00;102453.41;5052255;28;20063;-74
2022/12/18 10:51:33;;;;;;;26.90;14.23;;;;;;;-2.85;100.00;102454.06;5051890;28;20036;-73
2022/12/18 10:54:13;;;;;;;32.45;16.20;;;;;;;-2.78;100.00;102445.00;5051926;28;20570;-69
2022/12/18 10:56:38;;;;;;;27.48;15.32;;;;;;;-2.76;100.00;102443.16;5051505;28;20078;-72
2022/12/18 10:59:07;;;;;;;27.13;14.20;;;;;;;-2.75;100.00;102428.34;5051477;28;20429;-72
2022/12/18 11:02:24;;;;;;;28.52;16.10;;;;;;;-2.59;100.00;102431.09;5051624;28;20167;-72
2022/12/18 11:04:52;;;;;;;31.40;14.00;;;;;;;-2.59;100.00;102429.34;5017476;28;20055;-72
2022/12/18 11:07:17;;;;;;;30.05;14.60;;;;;;;-2.57;100.00;102424.88;5051190;28;20502;-72
2022/12/18 11:09:42;;;;;;;29.25;13.63;;;;;;;-2.53;100.00;102422.97;5051426;28;20057;-72
2022/12/18 11:12:19;;;;;;;32.75;13.80;;;;;;;-2.52;100.00;102428.13;5050438;28;20039;-72
2022/12/18 11:14:51;;;;;;;24.60;14.80;;;;;;;-2.48;100.00;102423.59;5051321;28;20025;-72